createdAt,value
2019-03-20T00:00:28.343Z,31.10
2019-03-20T00:02:57.638Z,31.30
2019-03-20T00:05:26.908Z,31.10
2019-03-20T00:07:56.200Z,32.00
2019-03-20T00:10:25.649Z,32.00
2019-03-20T00:12:54.931Z,31.50
2019-03-20T00:15:24.267Z,32.00
2019-03-20T00:17:53.555Z,32.80
2019-03-20T00:20:23.155Z,31.90
2019-03-20T00:22:52.438Z,31.90
2019-03-20T00:25:21.806Z,33.10
2019-03-20T00:27:51.097Z,33.70
2019-03-20T00:30:20.848Z,32.80
2019-03-20T00:32:50.138Z,33.30
2019-03-20T00:35:19.407Z,32.80
2019-03-20T00:37:48.979Z,33.20
2019-03-20T00:40:19.004Z,34.20
2019-03-20T00:42:48.271Z,33.50
2019-03-20T00:45:22.058Z,33.00
2019-03-20T00:47:51.341Z,32.60
2019-03-20T00:50:20.989Z,32.50
2019-03-20T00:52:50.264Z,32.80
2019-03-20T00:55:20.731Z,32.70
2019-03-20T00:57:50.071Z,33.50
2019-03-20T01:00:21.471Z,33.30
2019-03-20T01:02:51.003Z,34.40
2019-03-20T01:05:21.220Z,34.60
2019-03-20T01:07:50.829Z,34.10
2019-03-20T01:10:21.305Z,34.90
2019-03-20T01:12:51.264Z,34.80
2019-03-20T01:15:20.782Z,34.70
2019-03-20T01:17:50.076Z,34.50
2019-03-20T01:20:20.685Z,34.40
2019-03-20T01:22:50.217Z,35.00
2019-03-20T01:25:19.931Z,34.20
2019-03-20T01:27:49.399Z,34.60
2019-03-20T01:30:33.028Z,34.10
2019-03-20T01:33:04.148Z,34.10
2019-03-20T01:35:33.439Z,33.30
2019-03-20T01:38:02.724Z,33.20
2019-03-20T01:40:32.048Z,34.80
2019-03-20T01:43:01.320Z,35.40
2019-03-20T01:45:30.919Z,35.30
2019-03-20T01:48:00.271Z,34.60
2019-03-20T01:50:29.579Z,34.40
2019-03-20T01:52:58.842Z,35.00
2019-03-20T01:55:28.139Z,35.40
2019-03-20T01:57:57.415Z,36.20
2019-03-20T02:00:26.857Z,36.10
2019-03-20T02:02:56.162Z,36.90
2019-03-20T02:05:35.186Z,37.00
2019-03-20T02:07:56.424Z,37.50
2019-03-20T02:10:25.718Z,37.60
2019-03-20T02:12:54.993Z,37.10
2019-03-20T02:15:24.574Z,37.10
2019-03-20T02:17:53.847Z,37.10
2019-03-20T02:20:23.383Z,37.10
2019-03-20T02:22:52.650Z,37.10
2019-03-20T02:25:21.943Z,37.10
2019-03-20T02:27:51.223Z,37.00
2019-03-20T02:30:20.892Z,37.10
2019-03-20T02:32:50.526Z,36.90
2019-03-20T02:35:19.804Z,36.80
2019-03-20T02:37:49.100Z,36.50
2019-03-20T02:40:18.350Z,36.60
2019-03-20T02:42:49.203Z,37.00
2019-03-20T02:45:18.854Z,37.30
2019-03-20T02:47:48.456Z,37.40
2019-03-20T02:50:17.749Z,37.30
2019-03-20T02:52:47.054Z,38.00
2019-03-20T02:55:16.327Z,37.40
2019-03-20T02:57:45.687Z,37.00
2019-03-20T03:00:18.937Z,37.10
2019-03-20T03:02:48.213Z,36.10
2019-03-20T03:05:18.169Z,35.80
2019-03-20T03:07:47.791Z,35.30
2019-03-20T03:10:18.225Z,35.70
2019-03-20T03:12:47.561Z,35.20
2019-03-20T03:15:17.220Z,36.10
2019-03-20T03:17:46.554Z,35.90
2019-03-20T03:20:16.233Z,35.90
2019-03-20T03:22:45.531Z,35.40
2019-03-20T03:25:15.775Z,35.60
2019-03-20T03:27:45.063Z,35.80
2019-03-20T03:30:16.049Z,36.20
2019-03-20T03:32:45.630Z,36.50
2019-03-20T03:35:17.712Z,36.80
2019-03-20T03:37:46.231Z,36.90
2019-03-20T03:40:19.766Z,38.00
2019-03-20T03:42:49.072Z,37.70
2019-03-20T03:45:18.669Z,37.70
2019-03-20T03:47:47.944Z,38.70
2019-03-20T03:50:17.308Z,39.50
2019-03-20T03:52:46.808Z,39.50
2019-03-20T03:55:16.088Z,39.70
2019-03-20T03:57:45.815Z,39.40
2019-03-20T04:00:19.025Z,38.90
2019-03-20T04:02:48.399Z,39.30
2019-03-20T04:05:17.814Z,40.00
2019-03-20T04:07:47.151Z,40.40
2019-03-20T04:10:17.393Z,41.40
2019-03-20T04:12:46.899Z,42.80
2019-03-20T04:15:16.746Z,44.50
2019-03-20T04:17:46.330Z,44.50
2019-03-20T04:20:17.712Z,45.20
2019-03-20T04:22:47.022Z,44.90
2019-03-20T04:25:16.453Z,44.50
2019-03-20T04:27:45.732Z,44.50
2019-03-20T04:30:18.776Z,44.00
2019-03-20T04:32:48.371Z,44.60
2019-03-20T04:35:17.708Z,45.00
2019-03-20T04:37:47.292Z,44.80
2019-03-20T04:40:18.573Z,44.50
2019-03-20T04:42:47.951Z,44.80
2019-03-20T04:45:17.855Z,45.40
2019-03-20T04:47:47.138Z,44.60
2019-03-20T04:50:16.982Z,45.10
2019-03-20T04:52:46.275Z,45.00
2019-03-20T04:55:15.549Z,45.10
2019-03-20T04:57:46.003Z,45.50
2019-03-20T05:00:17.858Z,46.20
2019-03-20T05:02:47.145Z,47.10
2019-03-20T05:05:16.423Z,48.30
2019-03-20T05:07:45.716Z,50.00
2019-03-20T05:10:19.180Z,51.00
2019-03-20T05:12:48.527Z,51.10
2019-03-20T05:15:17.816Z,50.90
2019-03-20T05:17:47.082Z,50.40
2019-03-20T05:20:17.817Z,50.50
2019-03-20T05:22:47.096Z,50.40
2019-03-20T05:25:16.406Z,50.60
2019-03-20T05:27:45.871Z,50.70
2019-03-20T05:30:15.905Z,50.50
2019-03-20T05:32:45.416Z,50.00
2019-03-20T05:35:14.720Z,49.80
2019-03-20T05:37:44.076Z,49.30
2019-03-20T05:40:15.560Z,49.70
2019-03-20T05:42:44.839Z,50.00
2019-03-20T05:45:16.339Z,50.40
2019-03-20T05:47:45.612Z,48.70
2019-03-20T05:50:17.012Z,48.30
2019-03-20T05:52:46.289Z,47.70
2019-03-20T05:55:15.652Z,46.90
2019-03-20T05:57:44.941Z,47.20
2019-03-20T06:00:19.836Z,46.70
2019-03-20T06:02:49.123Z,46.20
2019-03-20T06:05:18.399Z,46.50
2019-03-20T06:07:47.698Z,46.60
2019-03-20T06:10:17.822Z,45.70
2019-03-20T06:12:47.118Z,45.10
2019-03-20T06:15:16.395Z,45.00
2019-03-20T06:17:47.008Z,44.70
2019-03-20T06:20:16.408Z,43.90
2019-03-20T06:22:45.702Z,43.40
2019-03-20T06:25:15.934Z,42.90
2019-03-20T06:27:45.207Z,42.10
2019-03-20T06:30:16.400Z,41.50
2019-03-20T06:32:45.691Z,40.90
2019-03-20T06:35:15.043Z,39.80
2019-03-20T06:37:44.335Z,38.60
2019-03-20T06:40:17.759Z,39.60
2019-03-20T06:42:47.098Z,39.70
2019-03-20T06:45:18.487Z,38.30
2019-03-20T06:47:47.835Z,40.00
2019-03-20T06:50:19.220Z,47.50
2019-03-20T06:52:48.514Z,46.60
2019-03-20T06:55:17.803Z,38.00
2019-03-20T06:57:47.095Z,32.70
2019-03-20T07:00:54.631Z,33.90
2019-03-20T07:03:32.590Z,34.00
2019-03-20T07:06:23.069Z,31.70
2019-03-20T07:09:10.430Z,30.70
2019-03-20T07:11:39.702Z,29.90
2019-03-20T07:14:09.007Z,30.20
2019-03-20T07:16:38.289Z,30.30
2019-03-20T07:19:07.578Z,29.60
2019-03-20T07:21:36.852Z,28.80
2019-03-20T07:24:06.147Z,28.30
2019-03-20T07:26:35.424Z,28.80
2019-03-20T07:29:04.775Z,28.40
2019-03-20T07:31:34.377Z,27.90
2019-03-20T07:34:03.666Z,27.50
2019-03-20T07:36:32.938Z,27.60
2019-03-20T07:39:02.307Z,25.90
2019-03-20T07:41:31.607Z,25.70
2019-03-20T07:44:00.890Z,25.70
2019-03-20T07:46:30.162Z,24.80
2019-03-20T07:48:59.464Z,25.10
2019-03-20T07:51:28.736Z,24.40
2019-03-20T07:53:58.026Z,23.90
2019-03-20T07:56:27.329Z,23.60
2019-03-20T07:58:56.623Z,24.10
2019-03-20T08:01:25.898Z,23.90
2019-03-20T08:03:55.196Z,23.00
2019-03-20T08:06:24.462Z,21.90
2019-03-20T08:08:53.753Z,21.50
2019-03-20T08:11:23.027Z,20.80
2019-03-20T08:13:52.390Z,20.40
2019-03-20T08:16:21.987Z,20.70
2019-03-20T08:18:51.259Z,19.60
2019-03-20T08:21:20.547Z,19.90
2019-03-20T08:23:49.825Z,20.30
2019-03-20T08:26:19.127Z,19.90
2019-03-20T08:28:48.415Z,19.20
2019-03-20T08:31:17.706Z,19.60
2019-03-20T08:33:46.989Z,19.30
2019-03-20T08:36:16.601Z,19.70
2019-03-20T08:38:45.867Z,20.00
2019-03-20T08:41:15.159Z,19.70
2019-03-20T08:43:45.713Z,19.70
2019-03-20T08:46:15.131Z,20.80
2019-03-20T08:48:44.450Z,20.30
2019-03-20T08:51:13.717Z,20.30
2019-03-20T08:53:43.016Z,19.40
2019-03-20T08:56:12.291Z,18.00
2019-03-20T08:58:41.591Z,18.30
2019-03-20T09:01:10.903Z,19.00
2019-03-20T09:03:40.199Z,18.80
2019-03-20T09:06:09.487Z,18.00
2019-03-20T09:08:39.043Z,17.10
2019-03-20T09:11:08.334Z,18.60
2019-03-20T09:13:37.610Z,17.30
2019-03-20T09:16:07.147Z,16.40
2019-03-20T09:18:36.438Z,16.70
2019-03-20T09:21:05.740Z,16.50
2019-03-20T09:23:35.259Z,15.40
2019-03-20T09:26:04.555Z,15.70
2019-03-20T09:28:33.839Z,16.00
2019-03-20T09:31:03.469Z,15.80
2019-03-20T09:33:32.747Z,14.90
2019-03-20T09:36:02.041Z,14.90
2019-03-20T09:38:31.315Z,15.00
2019-03-20T09:41:00.623Z,12.60
2019-03-20T09:43:29.914Z,12.50
2019-03-20T09:45:59.215Z,13.50
2019-03-20T09:48:28.787Z,12.40
2019-03-20T09:50:58.083Z,12.20
2019-03-20T09:53:27.354Z,11.40
2019-03-20T09:55:56.663Z,12.80
2019-03-20T09:58:25.947Z,12.80
2019-03-20T10:00:55.243Z,11.90
2019-03-20T10:03:24.537Z,11.30
2019-03-20T10:05:53.838Z,10.80
2019-03-20T10:08:23.106Z,11.70
2019-03-20T10:10:52.403Z,11.70
2019-03-20T10:13:21.987Z,10.40
2019-03-20T10:15:51.258Z,9.00
2019-03-20T10:18:20.555Z,9.20
2019-03-20T10:20:49.846Z,8.80
2019-03-20T10:23:19.140Z,9.60
2019-03-20T10:25:48.499Z,9.50
2019-03-20T10:28:17.799Z,9.00
2019-03-20T10:30:47.403Z,10.30
2019-03-20T10:33:16.771Z,10.20
2019-03-20T10:35:50.290Z,8.90
2019-03-20T10:38:17.052Z,8.20
2019-03-20T10:40:46.347Z,7.60
2019-03-20T10:43:15.639Z,7.20
2019-03-20T10:45:44.911Z,7.60
2019-03-20T10:48:14.208Z,7.00
2019-03-20T10:50:43.487Z,6.40
2019-03-20T10:53:12.783Z,7.30
2019-03-20T10:55:42.355Z,6.50
2019-03-20T10:58:11.641Z,6.80
2019-03-20T11:00:41.039Z,5.80
2019-03-20T11:03:10.296Z,4.60
2019-03-20T11:05:39.859Z,5.80
2019-03-20T11:08:09.160Z,5.80
2019-03-20T11:10:38.427Z,3.80
2019-03-20T11:13:07.719Z,2.90
2019-03-20T11:15:37.281Z,2.90
2019-03-20T11:18:06.540Z,4.00
2019-03-20T11:20:35.819Z,2.50
2019-03-20T11:23:05.266Z,2.40
2019-03-20T11:25:34.551Z,1.90
2019-03-20T11:28:03.892Z,3.10
2019-03-20T11:30:34.114Z,1.30
2019-03-20T11:33:03.403Z,1.00
2019-03-20T11:35:33.007Z,1.00
2019-03-20T11:38:02.283Z,1.00
2019-03-20T11:40:35.966Z,1.00
2019-03-20T11:43:05.612Z,1.00
2019-03-20T11:45:34.909Z,1.00
2019-03-20T11:48:04.415Z,1.00
2019-03-20T11:50:36.047Z,1.00
2019-03-20T11:53:07.541Z,1.00
2019-03-20T11:55:37.167Z,1.00
2019-03-20T11:58:07.187Z,1.00
2019-03-20T12:00:36.552Z,1.00
2019-03-20T12:03:05.992Z,1.00
2019-03-20T12:05:35.281Z,1.00
2019-03-20T12:08:04.717Z,1.00
2019-03-20T12:10:34.535Z,1.00
2019-03-20T12:13:04.198Z,1.00
2019-03-20T12:15:33.458Z,1.00
2019-03-20T12:18:03.001Z,1.00
2019-03-20T12:20:32.607Z,1.00
2019-03-20T12:23:01.898Z,1.00
2019-03-20T12:25:35.402Z,1.00
2019-03-20T12:28:05.945Z,1.00
2019-03-20T12:30:38.920Z,1.00
2019-03-20T12:33:08.210Z,1.00
2019-03-20T12:35:42.578Z,1.00
2019-03-20T12:38:14.657Z,1.00
2019-03-20T12:40:42.983Z,1.00
2019-03-20T12:43:12.271Z,1.00
2019-03-20T12:45:41.551Z,1.00
2019-03-20T12:48:18.426Z,1.00
2019-03-20T12:50:47.796Z,1.00
2019-03-20T12:53:32.239Z,1.00
2019-03-20T12:56:01.517Z,1.00
2019-03-20T12:58:30.867Z,1.00
2019-03-20T13:01:00.154Z,1.00
2019-03-20T13:03:30.804Z,1.00
2019-03-20T13:06:00.667Z,1.00
2019-03-20T13:08:30.280Z,1.00
2019-03-20T13:10:59.562Z,1.00
2019-03-20T13:13:28.833Z,1.00
2019-03-20T13:15:58.127Z,1.00
2019-03-20T13:18:27.404Z,1.00
2019-03-20T13:20:56.699Z,1.00
2019-03-20T13:23:32.098Z,1.00
2019-03-20T13:26:01.394Z,1.00
2019-03-20T13:28:30.658Z,1.00
2019-03-20T13:31:03.017Z,1.00
2019-03-20T13:33:32.297Z,1.00
2019-03-20T13:36:01.802Z,1.00
2019-03-20T13:38:31.406Z,1.00
2019-03-20T13:41:00.916Z,1.00
2019-03-20T13:43:30.207Z,1.00
2019-03-20T13:45:59.479Z,1.00
2019-03-20T13:48:28.996Z,1.00
2019-03-20T13:50:58.283Z,1.00
2019-03-20T13:53:27.828Z,1.00
2019-03-20T13:55:57.123Z,1.00
2019-03-20T13:58:26.416Z,1.00
2019-03-20T14:00:55.690Z,1.00
2019-03-20T14:03:25.000Z,1.00
2019-03-20T14:05:54.275Z,1.00
2019-03-20T14:08:23.568Z,1.00
2019-03-20T14:10:52.843Z,1.00
2019-03-20T14:13:22.140Z,1.00
2019-03-20T14:15:51.405Z,1.00
2019-03-20T14:18:20.694Z,1.00
2019-03-20T14:20:49.971Z,1.00
2019-03-20T14:23:19.260Z,1.00
2019-03-20T14:25:48.536Z,1.00
2019-03-20T14:28:18.054Z,1.00
2019-03-20T14:30:47.326Z,1.00
2019-03-20T14:33:16.622Z,1.00
2019-03-20T14:35:46.153Z,1.00
2019-03-20T14:38:15.438Z,1.00
2019-03-20T14:40:44.712Z,1.00
2019-03-20T14:43:14.039Z,1.00
2019-03-20T14:45:43.378Z,1.00
2019-03-20T14:48:12.659Z,1.00
2019-03-20T14:50:41.930Z,1.00
2019-03-20T14:53:11.208Z,1.00
2019-03-20T14:55:40.508Z,1.00
2019-03-20T14:58:09.790Z,1.00
2019-03-20T15:00:39.126Z,1.00
2019-03-20T15:03:08.415Z,1.00
2019-03-20T15:05:37.686Z,1.00
2019-03-20T15:08:06.988Z,1.00
2019-03-20T15:10:45.723Z,1.00
2019-03-20T15:13:07.619Z,1.00
2019-03-20T15:15:54.939Z,1.00
2019-03-20T15:18:24.238Z,1.00
2019-03-20T15:20:53.506Z,1.00
2019-03-20T15:23:22.798Z,1.00
2019-03-20T15:25:52.092Z,1.00
2019-03-20T15:28:21.388Z,1.00
2019-03-20T15:30:50.659Z,1.00
2019-03-20T15:33:19.946Z,1.00
2019-03-20T15:35:49.214Z,1.00
2019-03-20T15:38:18.507Z,1.00
2019-03-20T15:40:55.844Z,1.00
2019-03-20T15:43:18.754Z,1.00
2019-03-20T15:45:48.042Z,1.00
2019-03-20T15:48:17.315Z,1.00
2019-03-20T15:50:46.602Z,1.00
2019-03-20T15:53:15.911Z,1.00
2019-03-20T15:55:45.182Z,1.00
2019-03-20T15:58:14.518Z,1.00
2019-03-20T16:00:43.946Z,1.00
2019-03-20T16:03:19.263Z,1.00
2019-03-20T16:05:48.558Z,1.00
2019-03-20T16:08:17.827Z,1.00
2019-03-20T16:10:47.122Z,1.00
2019-03-20T16:13:16.391Z,1.00
2019-03-20T16:15:45.845Z,1.00
2019-03-20T16:18:15.131Z,1.00
2019-03-20T16:20:44.403Z,1.00
2019-03-20T16:23:13.699Z,1.00
2019-03-20T16:25:42.970Z,1.00
2019-03-20T16:28:12.254Z,1.00
2019-03-20T16:30:41.522Z,1.00
2019-03-20T16:33:10.806Z,1.00
2019-03-20T16:35:40.100Z,1.00
2019-03-20T16:38:09.390Z,1.00
2019-03-20T16:40:38.780Z,1.00
2019-03-20T16:43:08.171Z,1.00
2019-03-20T16:45:38.135Z,1.00
2019-03-20T16:48:07.411Z,1.00
2019-03-20T16:50:36.693Z,1.00
2019-03-20T16:53:06.047Z,1.00
2019-03-20T16:55:35.672Z,1.00
2019-03-20T16:58:04.931Z,1.00
2019-03-20T17:00:34.473Z,1.00
2019-03-20T17:03:04.171Z,1.00
2019-03-20T17:05:33.458Z,1.00
2019-03-20T17:08:02.734Z,1.00
2019-03-20T17:10:42.431Z,1.00
2019-03-20T17:13:11.706Z,1.00
2019-03-20T17:15:42.250Z,1.00
2019-03-20T17:18:11.759Z,1.00
2019-03-20T17:20:41.038Z,1.00
2019-03-20T17:23:10.414Z,1.20
2019-03-20T17:25:39.756Z,1.90
2019-03-20T17:28:09.203Z,2.90
2019-03-20T17:30:40.711Z,3.70
2019-03-20T17:33:09.986Z,4.60
2019-03-20T17:35:39.271Z,5.30
2019-03-20T17:38:08.543Z,5.80
2019-03-20T17:40:37.831Z,6.00
2019-03-20T17:43:07.118Z,6.50
2019-03-20T17:45:36.727Z,6.60
2019-03-20T17:48:06.066Z,6.80
2019-03-20T17:50:35.619Z,7.10
2019-03-20T17:53:05.834Z,7.00
2019-03-20T17:55:35.291Z,7.80
2019-03-20T17:58:05.124Z,8.40
2019-03-20T18:00:54.153Z,8.30
2019-03-20T18:03:23.435Z,8.50
2019-03-20T18:05:52.727Z,9.00
2019-03-20T18:08:22.006Z,9.10
2019-03-20T18:10:51.544Z,9.80
2019-03-20T18:13:20.815Z,9.90
2019-03-20T18:15:50.110Z,9.70
2019-03-20T18:18:19.403Z,10.50
2019-03-20T18:20:48.690Z,11.70
2019-03-20T18:23:17.995Z,13.50
2019-03-20T18:25:47.556Z,13.00
2019-03-20T18:28:16.855Z,12.50
2019-03-20T18:30:46.135Z,11.70
2019-03-20T18:33:15.427Z,11.80
2019-03-20T18:35:44.722Z,12.30
2019-03-20T18:38:14.259Z,12.70
2019-03-20T18:40:43.593Z,14.00
2019-03-20T18:43:13.294Z,13.80
2019-03-20T18:45:42.883Z,13.60
2019-03-20T18:48:12.165Z,13.50
2019-03-20T18:50:41.543Z,13.50
2019-03-20T18:53:11.183Z,13.10
2019-03-20T18:55:40.900Z,12.90
2019-03-20T18:58:10.209Z,12.90
2019-03-20T19:00:39.489Z,13.60
2019-03-20T19:03:12.191Z,14.20
2019-03-20T19:05:56.639Z,14.80
2019-03-20T19:08:26.037Z,15.40
2019-03-20T19:10:55.378Z,15.40
2019-03-20T19:13:24.735Z,15.80
2019-03-20T19:15:54.978Z,15.60
2019-03-20T19:18:24.585Z,16.40
2019-03-20T19:20:53.855Z,15.70
2019-03-20T19:23:23.129Z,15.60
2019-03-20T19:25:52.408Z,16.10
2019-03-20T19:28:21.982Z,16.20
2019-03-20T19:30:51.267Z,16.60
2019-03-20T19:33:20.794Z,16.70
2019-03-20T19:35:50.087Z,16.70
2019-03-20T19:38:19.362Z,17.20
2019-03-20T19:40:48.661Z,17.60
2019-03-20T19:43:17.935Z,18.10
2019-03-20T19:45:47.239Z,18.30
2019-03-20T19:48:16.511Z,18.80
2019-03-20T19:50:45.794Z,19.00
2019-03-20T19:53:15.398Z,18.50
2019-03-20T19:55:44.679Z,18.80
2019-03-20T19:58:14.202Z,19.20
2019-03-20T20:00:43.495Z,19.00
2019-03-20T20:03:12.782Z,19.00
2019-03-20T20:05:42.135Z,18.50
2019-03-20T20:08:11.820Z,19.00
2019-03-20T20:10:41.095Z,19.30
2019-03-20T20:13:10.374Z,19.40
2019-03-20T20:15:39.663Z,19.60
2019-03-20T20:18:09.235Z,19.60
2019-03-20T20:20:40.059Z,19.80
2019-03-20T20:23:09.330Z,20.20
2019-03-20T20:25:38.975Z,20.50
2019-03-20T20:28:11.187Z,20.30
2019-03-20T20:30:39.832Z,20.50
2019-03-20T20:33:09.275Z,20.80
2019-03-20T20:35:38.585Z,20.60
2019-03-20T20:38:08.139Z,21.00
2019-03-20T20:40:37.424Z,21.30
2019-03-20T20:43:07.042Z,21.50
2019-03-20T20:45:36.424Z,21.70
2019-03-20T20:48:05.717Z,21.90
2019-03-20T20:50:35.100Z,21.70
2019-03-20T20:53:04.371Z,21.30
2019-03-20T20:55:33.768Z,21.90
2019-03-20T20:58:03.113Z,21.70
2019-03-20T21:00:32.394Z,21.40
2019-03-20T21:03:01.667Z,22.40
2019-03-20T21:05:30.955Z,22.00
2019-03-20T21:08:00.223Z,22.20
2019-03-20T21:10:29.511Z,22.90
2019-03-20T21:12:58.778Z,22.80
2019-03-20T21:15:38.966Z,22.80
2019-03-20T21:18:14.034Z,22.60
2019-03-20T21:20:43.963Z,23.00
2019-03-20T21:23:38.843Z,23.50
2019-03-20T21:26:22.115Z,23.90
2019-03-20T21:29:11.260Z,23.90
2019-03-20T21:31:44.100Z,23.60
2019-03-20T21:34:49.921Z,23.80
2019-03-20T21:37:31.601Z,24.30
2019-03-20T21:40:00.913Z,24.00
2019-03-20T21:42:52.873Z,24.50
2019-03-20T21:45:30.902Z,27.10
2019-03-20T21:48:00.190Z,28.60
2019-03-20T21:50:49.202Z,24.60
2019-03-20T21:53:30.888Z,24.50
2019-03-20T21:56:21.659Z,24.30
2019-03-20T21:59:26.195Z,24.20
2019-03-20T22:02:30.587Z,24.30
2019-03-20T22:05:00.262Z,24.20
2019-03-20T22:07:29.602Z,24.80
2019-03-20T22:10:21.563Z,25.10
2019-03-20T22:12:53.973Z,25.10
2019-03-20T22:15:32.191Z,24.60
2019-03-20T22:18:28.926Z,23.50
2019-03-20T22:21:01.589Z,23.30
2019-03-20T22:24:07.531Z,24.50
2019-03-20T22:26:51.647Z,24.60
2019-03-20T22:29:24.947Z,24.20
2019-03-20T22:32:12.246Z,24.40
2019-03-20T22:34:44.623Z,24.80
2019-03-20T22:37:15.232Z,24.10
2019-03-20T22:40:16.264Z,25.00
2019-03-20T22:43:00.723Z,24.60
2019-03-20T22:45:58.891Z,24.50
2019-03-20T22:48:48.058Z,25.00
2019-03-20T22:51:34.822Z,24.90
2019-03-20T22:54:21.649Z,24.00
2019-03-20T22:57:14.478Z,24.20
2019-03-20T22:59:43.747Z,24.10
2019-03-20T23:02:18.691Z,24.20
2019-03-20T23:04:51.771Z,24.20
2019-03-20T23:07:21.071Z,24.70
2019-03-20T23:09:50.338Z,24.40
2019-03-20T23:12:19.698Z,24.80
2019-03-20T23:14:49.042Z,24.90
2019-03-20T23:17:18.329Z,24.90
2019-03-20T23:19:48.055Z,25.10
2019-03-20T23:22:17.785Z,24.90
2019-03-20T23:24:47.293Z,23.70
2019-03-20T23:27:20.000Z,24.70
2019-03-20T23:29:49.262Z,25.20
2019-03-20T23:32:18.559Z,25.50
2019-03-20T23:34:47.829Z,25.20
2019-03-20T23:37:17.123Z,25.20
2019-03-20T23:39:46.407Z,25.70
2019-03-20T23:42:15.756Z,25.80
2019-03-20T23:44:45.043Z,25.70
2019-03-20T23:47:14.336Z,25.50
2019-03-20T23:49:43.890Z,25.70
2019-03-20T23:52:13.155Z,26.10
2019-03-20T23:54:44.074Z,25.80
2019-03-20T23:57:13.936Z,26.40
2019-03-20T23:59:43.235Z,27.10
